Time;durP1;ratioP1;P1;durP2;ratioP2;P2;SDS_P1;SDS_P2;PMS_P1;PMS_P2;Temp;Humidity;BMP_temperature;BMP_pressure;BME280_temperature;BME280_humidity;BME280_pressure;Samples;Min_cycle;Max_cycle;Signal;HPM_P1;HPM_P2
2022/05/30 00:00:23;;;;;;;5.30;1.30;;;8.50;99.90;;;;;;5013212;28;20041;-76
2022/05/30 00:02:49;;;;;;;5.22;1.80;;;8.40;99.90;;;;;;5011711;28;20037;-75
2022/05/30 00:05:16;;;;;;;4.78;1.67;;;8.30;99.90;;;;;;5016670;28;20045;-76
2022/05/30 00:07:42;;;;;;;4.07;2.10;;;8.20;99.90;;;;;;5019230;28;20400;-75
2022/05/30 00:10:10;;;;;;;4.57;1.67;;;8.20;99.90;;;;;;4996153;28;20107;-75
2022/05/30 00:12:36;;;;;;;4.95;1.88;;;8.10;99.90;;;;;;5011761;28;20376;-76
2022/05/30 00:15:04;;;;;;;4.00;1.65;;;8.00;99.90;;;;;;5012862;28;20034;-76
2022/05/30 00:17:30;;;;;;;2.92;1.52;;;8.00;99.90;;;;;;5008225;28;20044;-75
2022/05/30 00:19:55;;;;;;;5.88;2.00;;;7.90;99.90;;;;;;5013909;28;20037;-75
2022/05/30 00:22:21;;;;;;;5.45;1.98;;;7.90;99.90;;;;;;5014189;28;20038;-75
2022/05/30 00:24:49;;;;;;;5.30;1.60;;;7.80;99.90;;;;;;5011068;28;20515;-75
2022/05/30 00:27:15;;;;;;;4.50;1.83;;;7.70;99.90;;;;;;5009911;28;20041;-75
2022/05/30 00:29:41;;;;;;;5.10;1.75;;;7.70;99.90;;;;;;5010733;28;20731;-76
2022/05/30 00:32:07;;;;;;;6.25;1.92;;;7.70;99.90;;;;;;5010080;28;20045;-76
2022/05/30 00:34:34;;;;;;;3.92;1.90;;;7.60;99.90;;;;;;5010351;28;20053;-76
2022/05/30 00:37:00;;;;;;;6.85;2.03;;;7.60;99.90;;;;;;5010275;28;20167;-76
2022/05/30 00:39:26;;;;;;;6.53;2.30;;;7.60;99.90;;;;;;5045514;22;20052;-78
2022/05/30 00:41:53;;;;;;;5.60;2.13;;;7.60;99.90;;;;;;5053334;28;20379;-77
2022/05/30 00:44:18;;;;;;;6.35;1.98;;;7.50;99.90;;;;;;5025983;28;20051;-78
2022/05/30 00:46:44;;;;;;;5.53;2.05;;;7.50;99.90;;;;;;5041545;28;20036;-79
2022/05/30 00:49:13;;;;;;;4.80;2.33;;;7.50;99.90;;;;;;5051149;28;20040;-78
2022/05/30 00:51:45;;;;;;;6.55;1.90;;;7.40;99.90;;;;;;5052304;28;20036;-79
2022/05/30 00:54:14;;;;;;;6.68;1.73;;;7.40;99.90;;;;;;5053034;28;20044;-78
2022/05/30 00:56:45;;;;;;;6.97;1.98;;;7.30;99.90;;;;;;5051882;28;20043;-78
2022/05/30 00:59:10;;;;;;;6.68;2.30;;;7.30;99.90;;;;;;5040880;28;20032;-78
2022/05/30 01:01:37;;;;;;;5.13;1.95;;;7.30;99.90;;;;;;5049782;28;20029;-77
2022/05/30 01:06:53;;;;;;;8.02;2.20;;;7.20;99.90;;;;;;5066942;28;20406;-79
2022/05/30 01:09:22;;;;;;;9.25;2.55;;;7.20;99.90;;;;;;5034353;28;20652;-78
2022/05/30 01:11:57;;;;;;;5.78;2.00;;;7.20;99.90;;;;;;5035642;28;20091;-78
2022/05/30 01:14:27;;;;;;;7.47;2.28;;;7.10;99.90;;;;;;5050339;28;20152;-78
2022/05/30 01:16:53;;;;;;;6.30;2.28;;;7.10;99.90;;;;;;5050343;28;20047;-78
2022/05/30 01:19:37;;;;;;;14.00;3.35;;;7.00;99.90;;;;;;5048207;28;20040;-76
2022/05/30 01:22:32;;;;;;;5.57;2.45;;;7.00;99.90;;;;;;5046439;28;20048;-77
2022/05/30 01:25:39;;;;;;;6.70;2.30;;;6.90;99.90;;;;;;5066699;28;20067;-78
2022/05/30 01:28:32;;;;;;;7.40;2.22;;;6.90;99.90;;;;;;5052291;28;20044;-78
2022/05/30 01:30:58;;;;;;;6.22;2.45;;;6.90;99.90;;;;;;5035681;28;20128;-78
2022/05/30 01:33:24;;;;;;;4.60;2.30;;;6.90;99.90;;;;;;5051310;28;20127;-78
2022/05/30 01:35:49;;;;;;;4.75;2.58;;;6.90;99.90;;;;;;5031176;28;20089;-78
2022/05/30 01:38:15;;;;;;;6.15;2.60;;;7.00;99.90;;;;;;5055163;28;20052;-78
2022/05/30 01:40:41;;;;;;;4.78;2.40;;;7.00;99.90;;;;;;5052072;28;20083;-78
2022/05/30 01:43:06;;;;;;;9.00;2.80;;;7.00;99.90;;;;;;5053369;28;20036;-78
2022/05/30 01:45:32;;;;;;;7.05;2.50;;;7.10;99.90;;;;;;5054563;28;20452;-79
2022/05/30 01:47:58;;;;;;;5.82;2.20;;;7.20;99.90;;;;;;5037670;28;20077;-78
2022/05/30 01:50:26;;;;;;;7.40;2.60;;;7.20;99.90;;;;;;5054421;28;20233;-79
2022/05/30 01:52:52;;;;;;;6.10;2.67;;;7.30;99.90;;;;;;5055656;28;20032;-78
2022/05/30 01:55:17;;;;;;;8.98;3.22;;;7.30;99.90;;;;;;5037122;28;20478;-77
2022/05/30 01:57:43;;;;;;;7.55;3.25;;;7.40;99.90;;;;;;5054576;28;20505;-77
2022/05/30 02:00:12;;;;;;;7.00;2.47;;;7.40;99.90;;;;;;5054769;28;20082;-78
2022/05/30 02:02:38;;;;;;;9.38;2.70;;;7.40;99.90;;;;;;5036456;28;20051;-77
2022/05/30 02:05:06;;;;;;;8.10;3.38;;;7.40;99.90;;;;;;5054353;28;20118;-78
2022/05/30 02:07:31;;;;;;;5.28;2.55;;;7.40;99.90;;;;;;5060479;28;20044;-77
2022/05/30 02:09:57;;;;;;;10.60;3.13;;;7.40;99.90;;;;;;5072880;28;20070;-77
2022/05/30 02:12:23;;;;;;;4.95;2.47;;;7.30;99.90;;;;;;5039989;28;20040;-77
2022/05/30 02:14:49;;;;;;;4.95;2.60;;;7.30;99.90;;;;;;5072893;28;20044;-77
2022/05/30 02:17:14;;;;;;;6.35;2.30;;;7.20;99.90;;;;;;5051621;28;20063;-78
2022/05/30 02:19:43;;;;;;;5.60;2.60;;;7.10;99.90;;;;;;5054657;28;20032;-78
2022/05/30 02:22:11;;;;;;;6.20;2.40;;;7.10;99.90;;;;;;5040869;28;20044;-78
2022/05/30 02:24:38;;;;;;;4.10;2.47;;;7.00;99.90;;;;;;5073064;28;20169;-78
2022/05/30 02:27:05;;;;;;;4.05;2.25;;;7.00;99.90;;;;;;5071840;28;20115;-77
2022/05/30 02:29:31;;;;;;;6.95;2.45;;;6.90;99.90;;;;;;5055810;28;20376;-77
2022/05/30 02:31:56;;;;;;;6.53;2.20;;;6.90;99.90;;;;;;5055067;28;20124;-76
2022/05/30 02:37:06;;;;;;;5.97;2.30;;;6.70;99.90;;;;;;5052598;28;20048;-76
2022/05/30 02:39:32;;;;;;;4.20;2.45;;;6.70;99.90;;;;;;5034936;28;20049;-77
2022/05/30 02:41:58;;;;;;;3.85;2.63;;;6.60;99.90;;;;;;5043995;28;20157;-77
2022/05/30 02:44:25;;;;;;;5.63;2.53;;;6.60;99.90;;;;;;5052362;28;20028;-77
2022/05/30 02:46:53;;;;;;;5.25;2.50;;;6.50;99.90;;;;;;5048526;28;20126;-77
2022/05/30 02:49:19;;;;;;;4.93;2.50;;;6.50;99.90;;;;;;5066274;28;20525;-77
2022/05/30 02:51:45;;;;;;;5.03;2.40;;;6.50;99.90;;;;;;5054334;28;20744;-76
2022/05/30 02:54:11;;;;;;;5.10;2.65;;;6.40;99.90;;;;;;5051768;28;20047;-76
2022/05/30 02:56:38;;;;;;;5.32;2.30;;;6.30;99.90;;;;;;5052055;28;20064;-77
2022/05/30 02:59:04;;;;;;;4.43;2.10;;;6.30;99.90;;;;;;5051674;28;20116;-77
2022/05/30 03:01:31;;;;;;;4.50;2.20;;;6.20;99.90;;;;;;5051812;28;20075;-76
2022/05/30 03:03:58;;;;;;;4.70;2.30;;;6.20;99.90;;;;;;5047529;28;20055;-77
2022/05/30 03:06:24;;;;;;;5.82;2.60;;;6.20;99.90;;;;;;5052124;28;20044;-78
2022/05/30 03:08:50;;;;;;;5.20;2.28;;;6.10;99.90;;;;;;5049772;28;20040;-77
2022/05/30 03:11:16;;;;;;;5.05;2.50;;;6.10;99.90;;;;;;5050188;28;20702;-77
2022/05/30 03:13:42;;;;;;;4.90;2.55;;;6.10;99.90;;;;;;5051755;28;20037;-77
2022/05/30 03:16:08;;;;;;;3.90;2.33;;;6.00;99.90;;;;;;5037376;28;20056;-76
2022/05/30 03:18:33;;;;;;;6.50;2.22;;;6.00;99.90;;;;;;5053816;28;20040;-77
2022/05/30 03:20:59;;;;;;;5.05;2.45;;;6.00;99.90;;;;;;5050156;28;20036;-77
2022/05/30 03:23:24;;;;;;;5.65;2.40;;;5.90;99.90;;;;;;5052010;28;20044;-77
2022/05/30 03:25:50;;;;;;;3.28;1.90;;;5.90;99.90;;;;;;5056997;28;20135;-76
2022/05/30 03:28:16;;;;;;;4.13;2.20;;;5.90;99.90;;;;;;5044592;28;20033;-76
2022/05/30 03:30:41;;;;;;;4.35;2.42;;;5.90;99.90;;;;;;5036749;28;20079;-76
2022/05/30 03:33:08;;;;;;;5.05;2.30;;;5.90;99.90;;;;;;5051234;28;20040;-77
2022/05/30 03:35:35;;;;;;;3.50;2.40;;;5.90;99.90;;;;;;5049915;28;20044;-77
2022/05/30 03:38:02;;;;;;;5.53;2.60;;;5.90;99.90;;;;;;5052705;28;20124;-76
2022/05/30 03:40:27;;;;;;;4.18;2.10;;;6.00;99.90;;;;;;5051157;28;20486;-77
2022/05/30 03:42:53;;;;;;;2.83;2.10;;;6.00;99.90;;;;;;5035301;28;20078;-77
2022/05/30 03:45:20;;;;;;;4.78;2.33;;;6.00;99.90;;;;;;5051412;28;20032;-77
2022/05/30 03:47:47;;;;;;;2.15;1.80;;;6.10;99.90;;;;;;5053546;28;20486;-77
2022/05/30 03:50:18;;;;;;;7.85;1.95;;;6.10;99.90;;;;;;5034453;28;20033;-77
2022/05/30 03:52:44;;;;;;;2.80;1.45;;;6.20;99.90;;;;;;5033548;28;20048;-77
2022/05/30 03:55:13;;;;;;;4.05;1.90;;;6.20;99.90;;;;;;5034774;28;20754;-76
2022/05/30 03:57:40;;;;;;;2.88;1.70;;;6.30;99.90;;;;;;5051654;28;20143;-77
2022/05/30 04:00:08;;;;;;;2.05;1.85;;;6.30;99.90;;;;;;5051265;28;20051;-77
2022/05/30 04:02:33;;;;;;;11.05;3.20;;;6.30;99.90;;;;;;5033100;28;20032;-76
2022/05/30 04:04:59;;;;;;;2.75;1.70;;;6.40;99.90;;;;;;5053491;28;20041;-75
2022/05/30 04:07:24;;;;;;;3.88;1.95;;;6.40;99.90;;;;;;5035765;28;20127;-77
2022/05/30 04:09:50;;;;;;;4.00;2.15;;;6.40;99.90;;;;;;5036269;28;20652;-77
2022/05/30 04:12:20;;;;;;;3.75;1.90;;;6.50;99.90;;;;;;5051713;28;20096;-76
2022/05/30 04:14:51;;;;;;;3.72;2.22;;;6.50;99.90;;;;;;5050723;28;20036;-76
2022/05/30 04:17:16;;;;;;;4.38;1.80;;;6.60;99.90;;;;;;5052624;28;20434;-76
2022/05/30 04:19:42;;;;;;;2.55;2.20;;;6.60;99.90;;;;;;5040026;28;20048;-76
2022/05/30 04:22:07;;;;;;;12.27;2.65;;;6.70;99.90;;;;;;5040516;28;20044;-76
2022/05/30 04:24:33;;;;;;;3.45;2.15;;;6.80;99.90;;;;;;5042779;28;20083;-77
2022/05/30 04:26:58;;;;;;;3.90;2.28;;;6.80;99.90;;;;;;5048547;28;20090;-76
2022/05/30 04:29:24;;;;;;;3.53;2.20;;;6.90;99.90;;;;;;5047120;28;20033;-76
2022/05/30 04:31:49;;;;;;;6.20;2.53;;;7.00;99.90;;;;;;5051535;28;20028;-77
2022/05/30 04:34:15;;;;;;;3.42;2.80;;;7.10;99.90;;;;;;5031369;28;20064;-76
2022/05/30 04:36:41;;;;;;;5.80;2.78;;;7.10;99.90;;;;;;5050968;28;20060;-77
2022/05/30 04:39:06;;;;;;;15.23;3.85;;;7.20;99.90;;;;;;5051336;28;20484;-78
2022/05/30 04:41:32;;;;;;;3.80;2.47;;;7.30;99.90;;;;;;5052821;28;20139;-76
2022/05/30 04:43:59;;;;;;;3.70;2.20;;;7.40;99.90;;;;;;5051280;28;20402;-77
2022/05/30 04:46:25;;;;;;;5.28;2.42;;;7.50;99.90;;;;;;5061164;28;20051;-76
2022/05/30 04:48:51;;;;;;;3.20;2.58;;;7.50;99.90;;;;;;5033333;28;20055;-76
2022/05/30 04:51:16;;;;;;;3.45;2.67;;;7.60;99.90;;;;;;5047916;28;20032;-76
2022/05/30 04:53:42;;;;;;;7.53;2.78;;;7.60;99.90;;;;;;5051322;28;20397;-76
2022/05/30 04:56:08;;;;;;;3.63;2.50;;;7.70;99.90;;;;;;5053052;28;20123;-77
2022/05/30 04:58:36;;;;;;;4.25;2.65;;;7.80;99.90;;;;;;5052650;28;20040;-77
2022/05/30 05:01:04;;;;;;;5.22;2.60;;;7.90;99.90;;;;;;5067761;28;20398;-77
2022/05/30 05:03:32;;;;;;;5.30;2.85;;;8.00;99.90;;;;;;5055295;28;20036;-76
2022/05/30 05:06:13;;;;;;;3.38;3.05;;;8.20;99.90;;;;;;5051288;28;20055;-75
2022/05/30 05:08:58;;;;;;;4.28;2.78;;;8.20;99.90;;;;;;5051539;28;20049;-76
2022/05/30 05:11:29;;;;;;;4.13;2.70;;;8.30;99.90;;;;;;5049483;28;20039;-77
2022/05/30 05:13:55;;;;;;;4.90;2.53;;;8.40;99.90;;;;;;5049876;28;20040;-80
2022/05/30 05:16:26;;;;;;;5.93;2.50;;;8.40;99.90;;;;;;5047428;28;20032;-77
2022/05/30 05:18:52;;;;;;;4.82;2.30;;;8.50;99.90;;;;;;5049402;28;20040;-77
2022/05/30 05:21:19;;;;;;;4.13;2.30;;;8.60;99.90;;;;;;5050402;28;20505;-75
2022/05/30 05:23:46;;;;;;;3.97;2.55;;;8.60;99.90;;;;;;5030651;28;20493;-75
2022/05/30 05:26:11;;;;;;;3.83;2.40;;;8.70;99.90;;;;;;5051381;28;20052;-75
2022/05/30 05:28:38;;;;;;;5.82;2.78;;;8.80;99.90;;;;;;5049187;28;20047;-75
2022/05/30 05:31:06;;;;;;;3.70;2.20;;;9.00;99.90;;;;;;5051408;28;20522;-75
2022/05/30 05:33:32;;;;;;;5.55;2.30;;;9.20;99.90;;;;;;5050456;28;20052;-75
2022/05/30 05:35:58;;;;;;;4.47;2.10;;;9.40;99.90;;;;;;5048088;28;20094;-74
2022/05/30 05:38:23;;;;;;;3.15;1.80;;;9.60;99.90;;;;;;5052513;28;20052;-75
2022/05/30 05:40:50;;;;;;;3.40;2.13;;;9.90;99.90;;;;;;5052238;28;20178;-74
2022/05/30 05:43:16;;;;;;;3.03;2.30;;;10.10;99.90;;;;;;5052639;28;20496;-74
2022/05/30 05:45:43;;;;;;;4.20;1.75;;;10.40;99.90;;;;;;5052862;28;20127;-74
2022/05/30 05:48:09;;;;;;;4.53;2.00;;;10.90;99.90;;;;;;5052779;28;20097;-75
2022/05/30 05:50:40;;;;;;;2.75;1.77;;;11.60;99.90;;;;;;5052192;28;20765;-74
2022/05/30 05:53:06;;;;;;;2.28;1.42;;;12.20;99.90;;;;;;5050797;28;20045;-74
2022/05/30 05:55:32;;;;;;;2.78;1.70;;;12.80;99.90;;;;;;5050874;28;20024;-74
2022/05/30 05:57:58;;;;;;;3.53;1.73;;;13.10;99.90;;;;;;5030346;28;20463;-75
2022/05/30 06:00:23;;;;;;;2.63;1.60;;;13.30;99.90;;;;;;5047388;28;20629;-73
2022/05/30 06:02:49;;;;;;;4.07;1.92;;;13.30;99.90;;;;;;5050926;28;20445;-74
2022/05/30 06:05:14;;;;;;;3.67;1.67;;;13.50;99.90;;;;;;5056957;28;20040;-72
2022/05/30 06:07:42;;;;;;;2.25;1.42;;;14.10;99.90;;;;;;5035889;28;20048;-72
2022/05/30 06:10:11;;;;;;;3.47;1.63;;;14.40;99.90;;;;;;5035848;28;20044;-72
2022/05/30 06:12:40;;;;;;;2.60;1.50;;;15.00;99.90;;;;;;5052703;28;20044;-73
2022/05/30 06:15:06;;;;;;;3.65;1.55;;;15.80;99.90;;;;;;5070279;28;20396;-73
2022/05/30 06:17:34;;;;;;;3.33;1.45;;;16.10;99.90;;;;;;5050766;28;20039;-73
2022/05/30 06:20:00;;;;;;;3.53;1.30;;;16.70;99.90;;;;;;5052431;28;20044;-73
2022/05/30 06:22:26;;;;;;;3.63;1.40;;;17.90;99.90;;;;;;5053159;28;20055;-73
2022/05/30 06:24:51;;;;;;;2.15;1.40;;;18.20;99.90;;;;;;5048549;28;20051;-73
2022/05/30 06:27:20;;;;;;;2.33;1.27;;;17.90;99.30;;;;;;5049641;28;20055;-73
2022/05/30 06:29:47;;;;;;;1.73;1.00;;;18.10;98.40;;;;;;5034761;28;20068;-72
2022/05/30 06:32:12;;;;;;;2.95;0.80;;;18.40;97.30;;;;;;5053589;28;20110;-73
2022/05/30 06:34:38;;;;;;;4.15;0.68;;;18.00;97.40;;;;;;5055173;28;20044;-74
2022/05/30 06:37:04;;;;;;;1.80;0.63;;;17.20;95.90;;;;;;5029565;28;20039;-74
2022/05/30 06:39:29;;;;;;;1.65;0.70;;;17.00;97.10;;;;;;5053149;28;20055;-72
2022/05/30 06:41:55;;;;;;;1.50;0.65;;;16.40;97.10;;;;;;5054415;28;20056;-73
2022/05/30 06:44:20;;;;;;;1.05;0.70;;;16.00;98.50;;;;;;5046567;28;20091;-73
2022/05/30 06:46:46;;;;;;;2.30;0.93;;;15.70;99.60;;;;;;5050590;28;20052;-74
2022/05/30 06:49:12;;;;;;;2.03;1.10;;;15.50;99.90;;;;;;5055862;28;20049;-74
2022/05/30 06:51:38;;;;;;;3.13;1.00;;;15.30;99.90;;;;;;5052162;28;20123;-74
2022/05/30 06:54:06;;;;;;;3.38;1.30;;;15.70;99.90;;;;;;5055736;28;20040;-74
2022/05/30 06:56:35;;;;;;;3.65;1.00;;;17.10;99.20;;;;;;5070138;28;20328;-74
2022/05/30 06:59:01;;;;;;;1.95;0.73;;;18.50;96.90;;;;;;5053786;28;20044;-74
2022/05/30 07:01:29;;;;;;;1.17;0.75;;;19.70;94.30;;;;;;5053566;28;20036;-74
2022/05/30 07:03:55;;;;;;;1.27;0.60;;;20.60;92.60;;;;;;5055543;28;20044;-74
2022/05/30 07:06:28;;;;;;;1.92;0.70;;;21.40;91.00;;;;;;5070516;28;20120;-74
2022/05/30 07:08:54;;;;;;;1.40;0.60;;;22.10;89.20;;;;;;5053970;28;20042;-72
2022/05/30 07:11:21;;;;;;;1.83;0.60;;;22.70;84.20;;;;;;5057377;28;20047;-73
2022/05/30 07:13:48;;;;;;;2.22;0.65;;;22.60;78.40;;;;;;5052245;28;20154;-71
2022/05/30 07:16:14;;;;;;;6.68;0.98;;;22.40;78.50;;;;;;5054376;28;20047;-73
2022/05/30 07:18:40;;;;;;;1.75;0.57;;;22.10;78.70;;;;;;5054736;28;20032;-72
2022/05/30 07:21:08;;;;;;;1.83;0.45;;;22.00;76.70;;;;;;5070755;28;20040;-73
2022/05/30 07:23:36;;;;;;;0.73;0.50;;;21.50;73.70;;;;;;5041794;28;20032;-74
2022/05/30 07:26:05;;;;;;;2.17;0.50;;;20.50;76.90;;;;;;5051664;28;20075;-73
2022/05/30 07:28:30;;;;;;;0.88;0.50;;;19.40;79.80;;;;;;5043225;28;20087;-73
2022/05/30 07:31:04;;;;;;;3.05;0.70;;;18.80;82.60;;;;;;5025659;28;20071;-81
2022/05/30 07:33:31;;;;;;;1.52;0.80;;;18.70;84.50;;;;;;5043002;28;20044;-80
2022/05/30 07:35:56;;;;;;;2.10;0.45;;;19.20;83.10;;;;;;5065695;28;20036;-81
2022/05/30 07:38:22;;;;;;;0.90;0.50;;;19.20;84.60;;;;;;5046320;28;20713;-82
2022/05/30 07:40:48;;;;;;;1.05;0.40;;;19.00;84.30;;;;;;5034885;28;20509;-81
2022/05/30 07:43:14;;;;;;;1.70;0.70;;;18.40;82.40;;;;;;5049268;28;20048;-80
2022/05/30 07:45:40;;;;;;;1.90;0.63;;;16.90;83.40;;;;;;5049059;28;20116;-81
2022/05/30 07:48:06;;;;;;;2.50;0.63;;;16.50;86.00;;;;;;5050884;28;20486;-81
2022/05/30 07:50:34;;;;;;;1.52;0.60;;;16.70;89.80;;;;;;5061948;28;20048;-81
2022/05/30 07:53:00;;;;;;;2.03;0.65;;;16.90;87.10;;;;;;5030366;28;20060;-81
2022/05/30 07:55:25;;;;;;;0.60;0.50;;;18.00;89.60;;;;;;5052141;28;20044;-82
2022/05/30 07:57:54;;;;;;;2.38;0.60;;;18.40;89.60;;;;;;5032580;28;20063;-82
2022/05/30 08:00:25;;;;;;;1.27;0.57;;;18.50;87.30;;;;;;5037497;28;20040;-81
2022/05/30 08:02:52;;;;;;;1.58;0.50;;;18.10;86.10;;;;;;5051799;28;20048;-81
2022/05/30 08:05:19;;;;;;;1.58;0.55;;;17.60;88.10;;;;;;5055194;28;20100;-81
2022/05/30 08:07:45;;;;;;;1.45;0.60;;;17.30;89.80;;;;;;5051970;28;20072;-81
2022/05/30 08:10:13;;;;;;;2.15;0.70;;;16.80;89.80;;;;;;5058503;28;20041;-81
2022/05/30 08:12:39;;;;;;;1.35;0.50;;;16.40;90.80;;;;;;5049366;28;20036;-82
2022/05/30 08:15:05;;;;;;;2.10;0.50;;;16.10;91.50;;;;;;5034977;28;20047;-81
2022/05/30 08:17:31;;;;;;;3.17;0.60;;;15.90;92.20;;;;;;5035626;28;20051;-81
2022/05/30 08:19:59;;;;;;;2.15;0.40;;;15.70;93.10;;;;;;5050353;28;20470;-81
2022/05/30 08:22:25;;;;;;;1.05;0.50;;;15.40;93.70;;;;;;5049443;28;20482;-80
2022/05/30 08:24:52;;;;;;;1.20;0.47;;;15.10;94.80;;;;;;5030217;28;20132;-81
2022/05/30 08:27:19;;;;;;;0.82;0.38;;;14.90;95.40;;;;;;5052892;28;20048;-80
2022/05/30 08:29:45;;;;;;;0.90;0.30;;;14.70;96.50;;;;;;5052683;28;20488;-81
2022/05/30 08:32:12;;;;;;;1.60;0.40;;;14.60;97.70;;;;;;5051162;28;20158;-80
2022/05/30 08:34:42;;;;;;;1.02;0.40;;;14.60;98.40;;;;;;5035452;28;20543;-80
2022/05/30 08:37:09;;;;;;;1.52;0.40;;;14.70;98.20;;;;;;5064602;28;20041;-81
2022/05/30 08:42:26;;;;;;;1.17;0.65;;;14.90;98.20;;;;;;5047962;28;20390;-80
2022/05/30 08:44:54;;;;;;;3.22;0.80;;;15.10;98.40;;;;;;5048634;28;20091;-81
2022/05/30 08:47:41;;;;;;;1.48;0.60;;;15.50;97.50;;;;;;5036428;28;20049;-81
2022/05/30 08:50:46;;;;;;;1.83;0.70;;;15.90;96.60;;;;;;5036942;28;20032;-82
2022/05/30 08:53:43;;;;;;;1.10;0.50;;;16.40;95.40;;;;;;5015737;28;20102;-81
2022/05/30 08:56:28;;;;;;;1.15;0.40;;;16.60;95.60;;;;;;5052815;28;20044;-82
2022/05/30 08:59:24;;;;;;;1.05;0.50;;;17.10;93.50;;;;;;5047992;28;20183;-82
2022/05/30 09:01:55;;;;;;;1.90;0.47;;;17.20;93.40;;;;;;5045396;28;20394;-80
2022/05/30 09:04:49;;;;;;;1.40;0.50;;;17.50;92.80;;;;;;5051241;28;20055;-80
2022/05/30 09:07:21;;;;;;;1.15;0.50;;;17.30;92.10;;;;;;5046041;28;20155;-80
2022/05/30 09:10:15;;;;;;;2.90;0.52;;;17.00;93.60;;;;;;5054488;28;20049;-81
2022/05/30 09:13:00;;;;;;;1.15;0.32;;;16.70;92.00;;;;;;5012998;28;20053;-81
2022/05/30 09:15:34;;;;;;;1.85;0.45;;;15.90;92.80;;;;;;5050505;28;20123;-81
2022/05/30 09:18:00;;;;;;;0.52;0.25;;;15.80;93.70;;;;;;5035769;28;20067;-81
2022/05/30 09:20:27;;;;;;;0.68;0.30;;;15.80;93.90;;;;;;5037151;28;20036;-81
2022/05/30 09:22:53;;;;;;;1.55;0.45;;;15.50;94.10;;;;;;5035712;28;20059;-83
2022/05/30 09:26:00;;;;;;;1.27;0.30;;;15.10;93.90;;;;;;5048076;28;20561;-82
2022/05/30 09:28:28;;;;;;;1.02;0.40;;;14.60;94.90;;;;;;5050696;28;20417;-82
2022/05/30 09:31:21;;;;;;;1.67;0.38;;;14.40;96.40;;;;;;5042047;28;20041;-82
2022/05/30 09:33:55;;;;;;;0.60;0.30;;;14.10;97.50;;;;;;5037743;28;20048;-82
2022/05/30 09:36:27;;;;;;;0.40;0.20;;;14.10;98.50;;;;;;5045996;28;20033;-82
2022/05/30 09:39:02;;;;;;;0.65;0.30;;;14.20;99.60;;;;;;5031975;28;20045;-82
2022/05/30 09:41:40;;;;;;;1.55;0.40;;;14.10;99.90;;;;;;5050238;28;20071;-82
2022/05/30 09:44:18;;;;;;;1.48;0.50;;;13.60;99.90;;;;;;5050713;28;20065;-81
2022/05/30 09:47:04;;;;;;;1.23;0.30;;;13.70;99.90;;;;;;5051250;28;20055;-81
2022/05/30 09:49:36;;;;;;;0.30;0.20;;;13.70;99.90;;;;;;5050810;28;20471;-81
2022/05/30 09:52:19;;;;;;;1.70;0.40;;;13.60;99.90;;;;;;5034688;28;20037;-81
2022/05/30 09:54:45;;;;;;;1.23;0.40;;;13.60;99.90;;;;;;5049244;28;20041;-81
2022/05/30 09:57:23;;;;;;;0.65;0.40;;;13.50;99.90;;;;;;5036108;28;20151;-80
2022/05/30 09:59:52;;;;;;;0.85;0.50;;;13.50;99.90;;;;;;5039150;28;20045;-79
2022/05/30 10:02:25;;;;;;;1.02;0.40;;;13.40;99.90;;;;;;5054070;28;20041;-80
2022/05/30 10:05:22;;;;;;;2.00;0.50;;;13.50;99.90;;;;;;5025247;28;20049;-81
2022/05/30 10:07:59;;;;;;;1.23;0.60;;;13.60;99.90;;;;;;5053068;28;20040;-81
2022/05/30 10:10:40;;;;;;;0.82;0.50;;;13.70;99.90;;;;;;5041062;28;20060;-78
2022/05/30 10:13:08;;;;;;;1.15;0.40;;;13.80;99.90;;;;;;5050928;28;20052;-80
2022/05/30 10:15:41;;;;;;;1.42;0.60;;;13.90;99.90;;;;;;5054391;28;20072;-80
2022/05/30 10:18:12;;;;;;;1.77;0.70;;;13.90;99.90;;;;;;5035767;28;20401;-80
2022/05/30 10:20:49;;;;;;;0.77;0.30;;;14.10;99.90;;;;;;5037735;28;20041;-81
2022/05/30 10:28:56;;;;;;;1.58;0.40;;;14.50;99.90;;;;;;5039438;28;20069;-77
2022/05/30 10:31:26;;;;;;;0.63;0.40;;;14.80;99.90;;;;;;5026592;28;20045;-77
2022/05/30 10:33:55;;;;;;;2.15;0.40;;;14.90;99.90;;;;;;5028618;28;20046;-77
2022/05/30 10:36:29;;;;;;;2.60;0.35;;;14.90;99.90;;;;;;5040337;28;20121;-77
2022/05/30 10:38:54;;;;;;;1.73;0.50;;;15.00;99.90;;;;;;5007898;28;20076;-78
2022/05/30 10:41:30;;;;;;;1.05;0.40;;;15.20;99.90;;;;;;5015777;28;20041;-78
2022/05/30 10:44:06;;;;;;;0.85;0.40;;;15.50;99.90;;;;;;5038910;28;20425;-77
2022/05/30 10:46:54;;;;;;;0.35;0.20;;;15.70;99.90;;;;;;5021078;28;20038;-77
2022/05/30 10:49:24;;;;;;;0.10;0.10;;;15.90;99.90;;;;;;5026657;28;20048;-78
2022/05/30 10:52:29;;;;;;;1.13;0.28;;;16.00;98.80;;;;;;5026287;28;20080;-77
2022/05/30 10:55:03;;;;;;;0.90;0.40;;;16.10;97.40;;;;;;5023851;28;20064;-76
2022/05/30 10:57:32;;;;;;;0.95;0.28;;;16.20;97.40;;;;;;5012754;28;20037;-76
2022/05/30 11:00:17;;;;;;;0.30;0.20;;;16.30;98.00;;;;;;5029725;28;20179;-76
2022/05/30 11:02:57;;;;;;;0.28;0.20;;;16.30;97.80;;;;;;5022191;28;20033;-77
2022/05/30 11:05:25;;;;;;;2.22;0.57;;;16.40;97.30;;;;;;5027940;28;20072;-76
2022/05/30 11:07:59;;;;;;;0.80;0.40;;;16.50;96.80;;;;;;5024149;28;20154;-74
2022/05/30 11:10:40;;;;;;;1.58;0.30;;;16.80;96.30;;;;;;5008228;28;20038;-76
2022/05/30 11:13:33;;;;;;;0.73;0.30;;;16.40;95.00;;;;;;5026403;28;20045;-77
2022/05/30 11:16:17;;;;;;;0.82;0.40;;;16.70;96.80;;;;;;5028859;28;20046;-77
2022/05/30 11:18:48;;;;;;;0.93;0.50;;;17.10;95.60;;;;;;5021768;28;20059;-76
2022/05/30 11:21:22;;;;;;;1.17;0.43;;;17.50;94.70;;;;;;5025253;28;20060;-77
2022/05/30 11:23:48;;;;;;;2.60;0.50;;;17.60;94.40;;;;;;5028701;28;20118;-76
2022/05/30 11:26:33;;;;;;;2.10;0.65;;;17.60;94.20;;;;;;5007668;28;20053;-77
2022/05/30 11:29:12;;;;;;;2.65;0.50;;;17.50;93.10;;;;;;5031272;28;20041;-76
2022/05/30 11:32:02;;;;;;;1.52;0.50;;;17.00;94.40;;;;;;5028918;28;20434;-76
2022/05/30 11:34:38;;;;;;;1.23;0.40;;;16.00;96.70;;;;;;5024824;28;20041;-77
2022/05/30 11:37:10;;;;;;;0.45;0.30;;;15.30;98.10;;;;;;5048877;28;20041;-77
2022/05/30 11:39:58;;;;;;;0.80;0.30;;;14.60;99.70;;;;;;5025950;28;20045;-76
2022/05/30 11:42:35;;;;;;;0.98;0.30;;;14.20;99.90;;;;;;5020036;28;20049;-75
2022/05/30 11:45:22;;;;;;;0.60;0.40;;;13.90;99.90;;;;;;5009307;28;20045;-75
2022/05/30 11:48:10;;;;;;;0.70;0.20;;;13.40;99.90;;;;;;5036975;28;20049;-76
2022/05/30 11:50:55;;;;;;;1.15;0.38;;;13.20;99.90;;;;;;5026850;28;20056;-76
2022/05/30 11:53:53;;;;;;;1.42;0.30;;;12.90;99.90;;;;;;5030944;28;20045;-76
2022/05/30 11:56:59;;;;;;;0.57;0.30;;;12.40;99.90;;;;;;5012394;28;20527;-76
2022/05/30 11:59:52;;;;;;;1.48;0.60;;;12.10;99.90;;;;;;5017506;28;20083;-76
2022/05/30 12:02:26;;;;;;;1.40;0.52;;;11.90;99.90;;;;;;5027303;28;20175;-76
2022/05/30 12:05:13;;;;;;;0.38;0.38;;;11.90;99.90;;;;;;5002689;28;20099;-76
2022/05/30 12:07:45;;;;;;;1.48;0.40;;;12.00;99.90;;;;;;5027594;28;20060;-76
2022/05/30 12:10:24;;;;;;;0.50;0.40;;;12.00;99.90;;;;;;5028994;28;20048;-77
2022/05/30 12:13:24;;;;;;;1.17;0.50;;;12.00;99.90;;;;;;5010552;28;20045;-76
2022/05/30 12:16:11;;;;;;;0.55;0.40;;;11.90;99.90;;;;;;5024902;28;20144;-76
2022/05/30 12:24:49;;;;;;;0.50;0.30;;;12.60;99.90;;;;;;5031485;28;20136;-77
2022/05/30 12:27:35;;;;;;;1.38;0.40;;;12.90;99.90;;;;;;5027394;28;20056;-76
2022/05/30 12:30:42;;;;;;;0.50;0.40;;;13.10;99.90;;;;;;5008275;28;20087;-76
2022/05/30 12:33:27;;;;;;;0.70;0.30;;;13.30;99.90;;;;;;4999488;28;20110;-76
2022/05/30 12:36:08;;;;;;;0.95;0.40;;;13.10;99.90;;;;;;5031975;28;20525;-77
2022/05/30 12:39:09;;;;;;;0.50;0.50;;;13.40;99.90;;;;;;5020788;28;20042;-76
2022/05/30 12:41:58;;;;;;;1.38;0.40;;;13.70;99.90;;;;;;5022402;28;20054;-77
2022/05/30 12:44:44;;;;;;;0.65;0.30;;;14.00;99.90;;;;;;5031816;28;20060;-77
2022/05/30 12:47:16;;;;;;;0.63;0.30;;;14.20;99.90;;;;;;5021624;28;20037;-76
2022/05/30 12:49:47;;;;;;;;;;;14.50;99.90;;;;;;5003978;28;20038;-77
2022/05/30 12:52:19;;;;;;;0.68;0.30;;;14.70;99.90;;;;;;5024129;28;19921;-78
2022/05/30 12:54:56;;;;;;;0.75;0.30;;;15.10;99.90;;;;;;5026942;28;20049;-78
2022/05/30 12:57:40;;;;;;;0.90;0.50;;;15.20;99.90;;;;;;5026647;28;20061;-78
2022/05/30 13:00:14;;;;;;;0.57;0.30;;;15.30;99.90;;;;;;5027304;28;20462;-78
2022/05/30 13:02:49;;;;;;;1.23;0.32;;;15.40;99.90;;;;;;5007203;28;20045;-78
2022/05/30 13:05:21;;;;;;;0.45;0.40;;;15.60;99.90;;;;;;5021146;28;20591;-78
2022/05/30 13:07:47;;;;;;;1.55;0.45;;;15.70;99.90;;;;;;5027305;28;20034;-78
2022/05/30 13:10:12;;;;;;;1.65;0.40;;;15.40;99.30;;;;;;5027063;28;20032;-78
2022/05/30 13:12:51;;;;;;;1.17;0.40;;;15.70;99.90;;;;;;5024367;28;20099;-76
2022/05/30 13:15:21;;;;;;;2.53;0.57;;;15.90;99.90;;;;;;5020919;28;20041;-76
2022/05/30 13:17:57;;;;;;;2.40;0.80;;;16.10;99.90;;;;;;5008384;28;20387;-78
2022/05/30 13:20:38;;;;;;;2.10;0.60;;;16.30;99.80;;;;;;5042907;28;20732;-77
2022/05/30 13:23:06;;;;;;;3.03;0.73;;;16.50;99.40;;;;;;5028659;28;20053;-77
2022/05/30 13:25:42;;;;;;;3.95;1.30;;;16.60;99.20;;;;;;5022815;28;20180;-77
2022/05/30 13:28:18;;;;;;;1.75;0.60;;;16.60;99.30;;;;;;5017527;28;20072;-77
2022/05/30 13:30:44;;;;;;;1.95;0.80;;;16.70;98.60;;;;;;5022666;28;20052;-77